RESULTATS »

INSCRITS PRESENTATS ACABEN RETIRATS DESQUALIFICATS DIST. TRAM 1 DIST. TRAM 2 DIST. TRAM 3 TEMP. EXT TEMP. AIGUA
399 359 350 9 0 5 25 2 0 0

CLASSIFICACIÓ

MASCULÍ FEMENÍ CATEGORIES CLUBS (MASCULINA) CLUBS (FEMENINA) INDIVIDUALS GRUPS D'EDAT

LLOCDORSALNOMCLUBCAT.T.META| P.Tram 1 || P.Tram 2 |Km/hTEMPS| P.Tram 3 |PARC_1PARC_2
1 33SARA LOEHR MUÑOZASS ESPORTIVA ROCKETSABF01:14:046400:17:3011300:46:5731.9501:04:279600:09:370:00:000:00:00
2 40ANNA FLAQUER PORTIFASTTRIATLON - C.N. MONTJSUB23F01:15:409400:18:0413600:48:1831.0601:06:227200:09:180:00:000:00:00
3 5001ANNA NOGUERA RAJAC.A. IGUALADAABF01:16:0410900:18:1513300:48:0431.2101:06:1910800:09:450:00:000:00:00
4 19MONTSERRAT MAS SANZCERRR IGUALADAABF01:17:446100:17:2520100:51:2229.2001:08:473900:08:570:00:000:00:00
5 45LAIA CONESA I MURFASTTRIATLON - C.N. MONTJJNF01:18:5712400:18:2918900:50:1329.8701:08:4214600:10:150:00:000:00:00
6 101ANDREA LOPEZ RAMENTOLTRIACTIV LANZAROTECDF01:20:1614000:18:4920500:51:3529.0801:10:2411600:09:520:00:000:00:00
7 65JULIANA VILLASANTE DUEÑASFASTTRIATLON - C.N. MONTJABF01:20:3717200:19:4019500:50:5329.4801:10:3313300:10:040:00:000:00:00
8 64GEMMA DIAZ RUIZPRAT TRIATLO 1994CDF01:20:3820900:20:1418800:50:1229.8801:10:2614400:10:120:00:000:00:00
9 1937MONTSERRAT CINCA PATOC.N. REUS PLOMSV2F01:20:5721100:20:1418600:50:1029.9001:10:2417500:10:330:00:000:00:00
10 5027MARTA ROMANCE OMSC.N. SABADELLCDF01:22:2220000:20:0820300:51:2729.1501:11:3520000:10:470:00:000:00:00
11 3501MIRIAM CODINA CASTILLOCLUB TRIATLO GRANOLLERSABF01:22:3720800:20:1321500:51:4828.9601:12:0118100:10:360:00:000:00:00
12 3521MONICA CRISOL SALASCLUB NATACIO RUBIABF01:22:4720100:20:0821700:51:5128.9301:11:5920100:10:480:00:000:00:00
13 6052SANDRA FUENTESECA BLANCOFASTTRIATLON - C.N. MONTJABF01:22:5619700:20:0621800:51:5228.9201:11:5821700:10:580:00:000:00:00
14 1953TXELL JARQUE PUJALSABSOLUT SPORTJNF01:23:3913500:18:4226300:54:4227.4201:13:2414800:10:150:00:000:00:00
15 68MERCHE BONASTRE RODRIGUEZPRAT TRIATLO 1994V1F01:24:4620500:20:1124900:53:5327.8401:14:0419100:10:420:00:000:00:00
16 8005DELIA MONTERRUBIO SERRANOLLICENCIA DE DIAABF01:24:5518800:19:5626000:54:3627.4701:14:3215400:10:230:00:000:00:00
17 3576PAULA LOPEZ CASTILLOPRAT TRIATLO 1994SUB23F01:25:0421900:20:2324300:53:3128.0301:13:5422900:11:100:00:000:00:00
18 5154EVA LAMELA IZQUIERDOTG TRIATLO SITGESV1F01:26:0124700:21:0025300:54:0527.7301:15:0521500:10:560:00:000:00:00
19 4071ELECTRA GARCIA MARGALEFCAMBRILS CLUB TRIATLOABF01:26:2421600:20:1927300:55:2427.0801:15:4319000:10:410:00:000:00:00
20 34JUDITH ANDUJAR PIÑOLCLUB TRIATLO GRANOLLERSABF01:27:1724200:20:5627400:55:2827.0401:16:2420900:10:530:00:000:00:00
21 3528JOANA PASCUAL   NICOLAUPRAT TRIATLO 1994ABF01:27:2227500:21:5125800:54:3027.5201:16:2122100:11:010:00:000:00:00
22 6083BERTA ALSIUS VIVESCLUB NATACIO BANYOLESABF01:27:3122300:20:3827900:55:4526.9101:16:2322700:11:080:00:000:00:00
23 5123LAIA CUEVAS MARTÍCLUB VO2 - SURALABF01:28:4721500:20:1929100:57:2726.1101:17:4622200:11:010:00:000:00:00
24 5160EVA PUPIM GETEJOVENTUT ATLETICA MONTCADV1F01:29:0521000:20:1429200:57:3226.0701:17:4624500:11:190:00:000:00:00
25 1982LAIA RIERA GONZALEZCLUB TRIATLO GRANOLLERSABF01:29:0529100:22:2326600:54:5327.3301:17:1627500:11:490:00:000:00:00
26 102BELÉN RUBIELLA GONZALEZCLUB TRIATLO BAIX MONTSENV1F01:29:4125200:21:0928500:56:5326.3701:18:0226300:11:390:00:000:00:00
27 23MERCE MAGEM PRATC.N. REUS PLOMSV2F01:29:5930100:22:5027100:55:0627.2201:17:5628500:12:030:00:000:00:00
28 6074ANNA BOFARULL BALLÚSCLUB TRIATLO LLUÇANESSUB23F01:30:2227400:21:5128700:57:1126.2301:19:0224700:11:200:00:000:00:00
29 120LESLIE VIOLIC.N. REUS PLOMSABF01:31:2332900:24:1524500:53:4027.9501:17:5532500:13:280:00:000:00:00
30 6071ESTEFANIA CHAMORRO I PADICLUB TRI-BUCDF01:31:4125700:21:1330100:59:1925.2901:20:3222800:11:090:00:000:00:00
31 1930YOLANDA LOPEZ BERDUMCLUB TRIATLO GRANOLLERSABF01:32:0426900:21:3529600:58:0625.8201:19:4129700:12:230:00:000:00:00
32 5038ADELAIDA CABO PAVIAABSOLUT SPORTABF01:32:1431100:23:1328200:56:1926.6401:19:3230800:12:420:00:000:00:00
33 6059DOLORS HERNANDEZ GARCIACERRR IGUALADAV1F01:33:1632400:23:4428900:57:1726.1901:21:0129100:12:150:00:000:00:00
34 6049ADRIANA LÓPEZ ULLODABSOLUT SPORTABF01:33:1726500:21:2931001:00:3524.7601:22:0423400:11:130:00:000:00:00
35 3581MONTSE TORRENTS PONCEW3TRIBCNV1F01:33:2532000:23:3529300:57:3826.0301:21:1329000:12:120:00:000:00:00
36 128SAMANTHA ARISTA RIVASC.N. SABADELLJNF01:33:3623900:20:5331301:00:5924.6001:21:5227100:11:440:00:000:00:00
37 1812CAROLINA AYZA DONATOCLUB TRIATLO GRANOLLERSABF01:33:4629200:22:2430300:59:3125.2001:21:5527900:11:510:00:000:00:00
38 51NURIA GARCIA GINJAUMEW3TRIBCNABF01:34:5230300:22:5330700:59:5125.0601:22:4428700:12:080:00:000:00:00
39 6089MERITXELL SOLE AGUSTIC.N. SABADELLABF01:34:5728900:22:1631201:00:4224.7101:22:5828200:11:590:00:000:00:00
40 5034JULIA LEIRADO SILVAABSOLUT SPORTABF01:36:1129400:22:2731901:02:0324.1701:24:3026700:11:410:00:000:00:00
41 116Mª CARME HERNANDEZ LOPEZCLUB NATACIO SITGESV1F01:36:2231600:23:1930801:00:2724.8101:23:4630400:12:360:00:000:00:00
42 6055AMPARO MUÑOZ SANTAMANSCAMBRILS CLUB TRIATLOABF01:36:5428600:22:1233101:03:1723.7001:25:2925000:11:250:00:000:00:00
43 6066MARIA FONTANALS I COLLCLUB NATACIO BARCELONAJNF01:37:0030500:23:0231801:01:5024.2601:24:5228800:12:080:00:000:00:00
44 7005LAURA ORTIZ TORRESLLICENCIA DE DIAABF01:37:23000:00:00000:00:000.0000:00:00000:00:000:00:000:00:00
45 4015VANESA VAZQUEZ RIVAS DE RTRIATLO GIRONA COSTA BRAVABF01:37:2931400:23:1531501:01:1524.4901:24:3031500:12:590:00:000:00:00
46 1851MARTA SANCHEZ SALINASCLUB TRIATLO L´EIX DE NAVV1F01:37:4931000:23:0631701:01:3324.3701:24:3932200:13:100:00:000:00:00
47 4076GEMMA BADIA PRATCLUB VO2 - SURALABF01:37:5128800:22:1433201:03:1823.7001:25:3229500:12:190:00:000:00:00
48 4085MARIA JOSÉ ARCAS GARCÍAW3TRIBCNV1F01:38:0430800:23:0632201:02:1824.0801:25:2430700:12:400:00:000:00:00
49 5107RAQUEL GARCIA SANSW3TRIBCNABF01:38:0430700:23:0532301:02:2224.0501:25:2730500:12:370:00:000:00:00
50 6062MIRIAM CATALÁN GILC.E. RAYOTEAMABF01:39:1832200:23:4032001:02:0624.1501:25:4632700:13:320:00:000:00:00
51 7010MONTSE MALDONADO PINTOLLICENCIA DE DIAV1F01:40:0330900:23:0633301:04:1323.3601:27:1930900:12:440:00:000:00:00
52 5033MIREIA PÉREZ GARCÍAABSOLUT SPORTJNF01:42:1232700:24:1433601:04:5423.1101:29:0832100:13:040:00:000:00:00
53 6039SANDRA PEZONAGA MALAGRAVATG TRIATLO SITGESV1F01:42:3534000:25:5932901:02:5823.8201:28:5732900:13:380:00:000:00:00
54 1841LUCIA BERMEJO CALVOCAMBRILS CLUB TRIATLOABF01:43:4633100:24:3333701:04:5423.1101:29:2733500:14:190:00:000:00:00
55 6030CRISTINA GARCIA ARANCAMBRILS CLUB TRIATLOABF01:43:4734200:26:4932601:02:3923.9401:29:2833400:14:190:00:000:00:00
56 6056MÒNICA MOLINA MORANTECAMBRILS CLUB TRIATLOABF01:43:4733700:25:1533401:04:1423.3501:29:2933300:14:180:00:000:00:00
57 5200NOELIA RAMIREZ ARTIMEZTRIATLO L´HOSPITALETSUB23F01:46:0333400:24:5634201:06:4322.4801:31:3933800:14:240:00:000:00:00
58 5198ANNA GÜELL AGUTCLUB TRIATLO MALGRATSUB23F01:48:0433900:25:3534101:06:3422.5301:32:0934400:15:550:00:000:00:00
59 6040MARTA MARIN BLANCOTG TRIATLO SITGESABF01:50:3934400:28:1534301:07:2422.2601:35:3934100:15:000:00:000:00:00
60 6212MONTSE COSTA MATEUTG TRIATLO SITGESV1F01:50:3934100:26:0034401:09:4421.5101:35:4433900:14:550:00:000:00:00
61 6211BEATRIZ ROSÓN HERNANDEZTG TRIATLO SITGESV2F01:52:2734600:29:5333901:06:0322.7101:35:5634700:16:310:00:000:00:00
62 6081MIREIA MCLEAN DANONC.N. SABADELLSUB23F01:54:4932600:24:0234701:17:2519.3801:41:2732400:13:220:00:000:00:00
63 20MONTSERRAT CLAVERO SANCHEC.N. REUS PLOMSV3F01:59:4134800:30:0934501:13:2420.4401:43:3334500:16:080:00:000:00:00
64 3562MARIA DAVILA RUEDAW3TRIBCNV2F02:02:2534700:30:0634601:15:3719.8401:45:4334800:16:420:00:000:00:00






FEDERACIÓ CATALANA DE TRIATLÓ
SEU CENTRAL I CORRESPONDÈNCIA: Rambla Guipúscoa 23-25 2on-D · 08018 Barcelona · Tel / Fax : 93 307 93 35
ATENCIÓ AL PÚBLIC: Passeig Joan de Borbó, 93 (Club Natació Barcelona) · 08039 Barcelona · Tel / Fax : 93 307 93 32